Norwegian Star — C6FR3 — position and weather

sailwx.info

Track history (hours):
 
Tides and Currents Weather Stations Pressure Air Temp Water Temp Dewpoint Dewpoint Depression Visibility Wind Speed Wind Dir Waves Ship Positions

Norwegian Star

Operator: Norwegian Cruise Line

Last reported at 2015-Aug-03 15:14 UTC. Time now 2015-Aug-03 21:23 UTC.
Position N 57°18' E 019°34'.

Type: Ship. MMSI: 311082000.

Date/timePositionNaut miles runAvg speedWind from/ knotsBaromVisibWave heightAir tempDewpointWater temp
2015-Aug-03 15:14N 57°18' E 019°34'1316.4
2015-Aug-03 14:26N 57°09' E 019°17'1416.4
2015-Aug-03 13:33N 56°59' E 018°57'1716.7
2015-Aug-03 12:33N 56°49' E 018°33'1717.1
2015-Aug-03 11:33N 56°38' E 018°09'1717.1
2015-Aug-03 10:33N 56°27' E 017°45'1817.0
2015-Aug-03 09:29N 56°16' E 017°19'202411.6
2015-Aug-03 09:00N 59°12' E 014°12'205455.9 060 / 71017.0 17.1
2015-Aug-03 08:32N 56°06' E 016°56'3417.2
2015-Aug-03 06:33N 55°48' E 016°04'1717.7
2015-Aug-03 05:33N 55°39' E 015°37'1817.7
2015-Aug-03 04:33N 55°31' E 015°10'1817.7
2015-Aug-03 03:33N 55°24' E 014°41'1817.7
2015-Aug-03 02:33N 55°10' E 014°21'1717.4
2015-Aug-03 01:33N 54°59' E 013°58'1817.8
2015-Aug-03 00:33N 54°53' E 013°28'1817.6
2015-Aug-02 23:33N 54°48' E 012°59'1717.0
2015-Aug-02 22:34N 54°42' E 012°32'1615.8
2015-Aug-02 21:33N 54°30' E 012°14'1615.7
2015-Aug-02 20:33N 54°15' E 012°05'5 4.2
2015-Aug-02 19:26N 54°10' E 012°06'0 0.0
2015-Aug-02 18:29N 54°10' E 012°06'0 0.0
2015-Aug-02 17:25N 54°10' E 012°06'0 0.0
2015-Aug-02 16:32N 54°10' E 012°06'0 0.0
2015-Aug-02 15:32N 54°10' E 012°06'0 0.0
2015-Aug-02 14:33N 54°10' E 012°06'0 0.0
2015-Aug-02 13:33N 54°10' E 012°06'0 0.0
2015-Aug-02 12:33N 54°10' E 012°06'0 0.0
2015-Aug-02 11:32N 54°10' E 012°06'0 0.0
2015-Aug-02 10:32N 54°10' E 012°06'2 3.0
2015-Aug-02 10:00N 54°12' E 012°06'2 3.6 290 / 111015.0 21.0
2015-Aug-02 09:33N 54°10' E 012°06'2 2.8
2015-Aug-02 09:00N 54°12' E 012°06'2 3.4 310 / 101015.010.8 20.3
2015-Aug-02 08:31N 54°10' E 012°06'0 0.0
2015-Aug-02 07:31N 54°10' E 012°06'0 0.0
2015-Aug-02 06:31N 54°10' E 012°06'0 0.0
2015-Aug-02 05:31N 54°10' E 012°06'0 0.1
2015-Aug-02 04:34N 54°10' E 012°06'4 4.0
2015-Aug-02 03:33N 54°14' E 012°03'1515.1
2015-Aug-02 02:33N 54°23' E 011°43'1817.5
2015-Aug-02 01:33N 54°33' E 011°17'1716.5
2015-Aug-02 00:33N 54°41' E 010°53'1514.7
2015-Aug-01 23:33N 54°56' E 010°55'1515.1
2015-Aug-01 22:33N 55°10' E 011°03'1616.1
2015-Aug-01 21:33N 55°26' E 010°57'1919.2
2015-Aug-01 20:34N 55°44' E 010°48'4117.2
2015-Aug-01 18:12N 56°07' E 011°48'1320.6
2015-Aug-01 17:34N 56°12' E 012°10'1918.9
2015-Aug-01 16:33N 56°03' E 012°40'1616.0
2015-Aug-01 15:34N 55°47' E 012°43'5 5.3
2015-Aug-01 14:32N 55°43' E 012°37'0 0.0
2015-Aug-01 13:32N 55°43' E 012°37'0 0.0
2015-Aug-01 12:32N 55°43' E 012°37'0 0.0
2015-Aug-01 11:33N 55°43' E 012°37'0 0.0
2015-Aug-01 10:31N 55°43' E 012°37'1 2.1
2015-Aug-01 10:00N 55°42' E 012°36'1 2.4 320 / 21014.0 5.4 17.9
2015-Aug-01 09:32N 55°43' E 012°37'0 0.0
2015-Aug-01 08:33N 55°43' E 012°37'0 0.0
2015-Aug-01 07:32N 55°43' E 012°37'0 0.0
2015-Aug-01 06:32N 55°43' E 012°37'0 0.0
2015-Aug-01 05:31N 55°43' E 012°37'0 0.0
2015-Aug-01 04:33N 55°43' E 012°37'5 5.3
2015-Aug-01 03:33N 55°47' E 012°42'1615.7
2015-Aug-01 02:34N 56°03' E 012°39'1919.1
2015-Aug-01 01:34N 56°11' E 012°08'4018.5
2015-Jul-31 23:24N 55°57' E 011°01'3717.2
2015-Jul-31 21:15N 55°21' E 011°02'1318.0
2015-Jul-31 20:33N 55°08' E 011°03'1818.0
2015-Jul-31 19:33N 54°51' E 010°53'1616.5
2015-Jul-31 18:33N 54°37' E 011°09'2019.5
2015-Jul-31 17:33N 54°28' E 011°39'1818.5
2015-Jul-31 16:33N 54°27' E 012°10'5918.8
2015-Jul-31 13:24N 54°58' E 013°38'1720.3
2015-Jul-31 12:33N 55°04' E 014°05'2120.7
2015-Jul-31 11:33N 55°20' E 014°28'2120.6
2015-Jul-31 10:33N 55°32' E 014°58'2321.2
2015-Jul-31 09:27N 55°43' E 015°34'8120.5
2015-Jul-31 05:31N 56°42' E 017°13'2121.7
2015-Jul-31 04:33N 57°02' E 017°25'2221.9
2015-Jul-31 03:33N 57°23' E 017°36'12110.0
2015-Jul-30 15:24N 59°22' E 018°24'8 9.6
2015-Jul-30 14:33N 59°21' E 018°09'1 0.7
2015-Jul-30 13:31N 59°21' E 018°07'0 0.0
2015-Jul-30 12:31N 59°21' E 018°07'0 0.0
2015-Jul-30 11:31N 59°21' E 018°07'0 0.0
2015-Jul-30 10:33N 59°21' E 018°07'3 4.6
2015-Jul-30 10:00N 59°18' E 018°06'3 5.9 220 / 4992.0 5.4 16.3
2015-Jul-30 09:33N 59°21' E 018°07'3 4.7
2015-Jul-30 09:00N 59°18' E 018°06'3 5.9 270 / 7991.0 5.4 16.0
2015-Jul-30 08:33N 59°21' E 018°07'3 4.7
2015-Jul-30 08:00N 59°18' E 018°06'3 5.9 210 / 7991.0 5.4 16.0
2015-Jul-30 07:33N 59°21' E 018°07'0 0.0
2015-Jul-30 06:33N 59°21' E 018°07'0 0.3
2015-Jul-30 05:33N 59°21' E 018°08'8 8.0
2015-Jul-30 04:33N 59°22' E 018°23'8411.6
2015-Jul-29 21:20N 59°30' E 021°08'1416.9
2015-Jul-29 20:28N 59°27' E 021°36'714.3
2015-Jul-29 20:00N 59°30' E 021°48'1818.3 200 / 26993.0 2.2 0.516.4
2015-Jul-29 19:00N 59°30' E 022°24'1216.9 190 / 21994.0 5.4 0.516.6
2015-Jul-29 18:16N 59°34' E 022°47'415.3
2015-Jul-29 18:00N 59°36' E 022°54'818.6 200 / 17994.0 5.4 0.517.0
2015-Jul-29 17:33N 59°37' E 023°10'815.3
2015-Jul-29 17:00N 59°42' E 023°24'1021.6 220 / 11994.0 5.4 0.517.4
2015-Jul-29 16:33N 59°42' E 023°43'1817.0
2015-Jul-29 15:30N 59°47' E 024°17'31 3.7
2015-Jul-29 07:00N 60°12' E 024°54'15 3.3 160 / 5995.0 5.4 0.517.4
2015-Jul-29 02:26N 59°57' E 025°01'1213.5
2015-Jul-29 01:34N 59°55' E 025°24'1615.7
2015-Jul-29 00:33N 59°57' E 025°55'1817.7
2015-Jul-28 23:33N 60°01' E 026°29'1717.5
2015-Jul-28 22:33N 59°60' E 027°04'7915.8
2015-Jul-28 17:33N 59°59' E 029°42'1110.6
2015-Jul-28 16:33N 59°56' E 030°02'5 4.5
2015-Jul-28 15:31N 59°57' E 030°11'0 0.0
2015-Jul-28 14:28N 59°57' E 030°11'0 0.0
2015-Jul-28 13:31N 59°57' E 030°11'0 0.0
2015-Jul-28 12:31N 59°57' E 030°11'0 0.0
2015-Jul-28 11:31N 59°57' E 030°11'0 0.0
2015-Jul-28 10:31N 59°57' E 030°11'0 0.0
2015-Jul-28 09:31N 59°57' E 030°11'0 0.0
2015-Jul-28 08:31N 59°57' E 030°11'0 0.0
2015-Jul-28 07:28N 59°57' E 030°11'3 5.6
2015-Jul-28 07:00N 59°54' E 030°12'3 5.7 290 / 111000.0 5.4 0.517.8
2015-Jul-28 06:31N 59°57' E 030°11'0 0.0
2015-Jul-28 05:31N 59°57' E 030°11'0 0.0
2015-Jul-28 04:31N 59°57' E 030°11'0 0.0
2015-Jul-28 03:31N 59°57' E 030°11'0 0.0
2015-Jul-28 02:31N 59°57' E 030°11'0 0.0
2015-Jul-28 01:31N 59°57' E 030°11'0 0.0
2015-Jul-28 00:31N 59°57' E 030°11'0 0.0
2015-Jul-27 23:31N 59°57' E 030°11'0 0.0
2015-Jul-27 22:31N 59°57' E 030°11'0 0.0
2015-Jul-27 21:31N 59°57' E 030°11'0 0.0
2015-Jul-27 20:31N 59°57' E 030°11'3 5.1
2015-Jul-27 20:00N 59°54' E 030°12'3 5.7 020 / 81003.0 5.4 18.0
2015-Jul-27 19:31N 59°57' E 030°11'3 5.1
2015-Jul-27 19:00N 59°54' E 030°12'3 5.7 360 / 101003.0 5.4 0.518.7
2015-Jul-27 18:31N 59°57' E 030°11'3 5.1
2015-Jul-27 18:00N 59°54' E 030°12'3 5.7 350 / 81002.0 5.4 19.0
2015-Jul-27 17:31N 59°57' E 030°11'3 5.1
2015-Jul-27 17:00N 59°54' E 030°12'3 5.7 360 / 81003.0 5.4 19.2
2015-Jul-27 16:31N 59°57' E 030°11'3 5.1
2015-Jul-27 16:00N 59°54' E 030°12'3 5.7 320 / 91003.0 5.4 19.2
2015-Jul-27 15:31N 59°57' E 030°11'0 0.0
2015-Jul-27 14:31N 59°57' E 030°11'0 0.0
2015-Jul-27 13:31N 59°57' E 030°11'0 0.0
2015-Jul-27 12:31N 59°57' E 030°11'0 0.0
2015-Jul-27 11:31N 59°57' E 030°11'0 0.0
2015-Jul-27 10:31N 59°57' E 030°11'0 0.0
2015-Jul-27 09:31N 59°57' E 030°11'3 5.1
2015-Jul-27 09:00N 59°54' E 030°12'3 5.7 270 / 81002.0 5.4 18.6
2015-Jul-27 08:31N 59°57' E 030°11'3 5.1
2015-Jul-27 08:00N 59°54' E 030°12'3 5.2 240 / 121001.0 5.4 0.518.6
2015-Jul-27 07:28N 59°57' E 030°11'0 0.0
2015-Jul-27 06:28N 59°57' E 030°11'0 0.0
2015-Jul-27 05:31N 59°57' E 030°11'0 0.1
2015-Jul-27 04:33N 59°57' E 030°11'8 8.3
2015-Jul-27 03:33N 59°56' E 029°55'1110.6
2015-Jul-27 02:33N 60°01' E 029°35'7812.7
2015-Jul-26 20:27N 59°58' E 027°00'1314.4
2015-Jul-26 19:33N 59°59' E 026°34'2113.3
2015-Jul-26 18:00N 59°54' E 025°54'1616.2 180 / 22998.0 5.4 1.018.7
2015-Jul-26 17:00N 59°48' E 025°24'915.0 150 / 15997.0 5.4 1.018.7
2015-Jul-26 16:25N 59°46' E 025°08'1214.4
2015-Jul-26 15:33N 59°40' E 024°45'1312.9
2015-Jul-26 14:33N 59°27' E 024°46'0 0.5
2015-Jul-26 13:33N 59°27' E 024°46'0 0.0
2015-Jul-26 12:33N 59°27' E 024°46'0 0.0
2015-Jul-26 11:33N 59°27' E 024°46'0 0.0
2015-Jul-26 10:33N 59°27' E 024°46'0 0.0
2015-Jul-26 09:33N 59°27' E 024°46'0 0.0
2015-Jul-26 08:30N 59°27' E 024°46'3 6.2
2015-Jul-26 08:00N 59°24' E 024°48'3 7.2 160 / 121001.0 5.4 16.9
2015-Jul-26 07:33N 59°27' E 024°46'0 0.0
2015-Jul-26 06:30N 59°27' E 024°46'0 0.0
2015-Jul-26 05:33N 59°27' E 024°46'7 6.7
2015-Jul-26 04:33N 59°30' E 024°34'16615.8
2015-Jul-25 18:00N 57°54' E 020°12'19216.8 100 / 381004.0 2.2 1.517.0
2015-Jul-25 06:33N 55°44' E 015°53'1716.8
2015-Jul-25 05:33N 55°37' E 015°26'1717.1
2015-Jul-25 04:33N 55°29' E 014°59'1717.0
2015-Jul-25 03:33N 55°20' E 014°34'1817.7
2015-Jul-25 02:33N 55°06' E 014°15'1018.2
2015-Jul-25 02:00N 55°00' E 014°00'614.7 090 / 241007.0 5.4 1.017.012.015.0
2015-Jul-25 01:33N 54°57' E 013°50'1221.3
2015-Jul-25 01:00N 54°54' E 013°30'510.7 090 / 241007.010.8 1.017.012.015.0
2015-Jul-25 00:33N 54°53' E 013°22'1716.8
2015-Jul-24 23:33N 54°47' E 012°55'1616.4
2015-Jul-24 22:33N 54°41' E 012°29'1616.1
2015-Jul-24 21:33N 54°27' E 012°13'1414.5
2015-Jul-24 20:34N 54°14' E 012°04'4 3.3
2015-Jul-24 19:29N 54°10' E 012°06'0 0.0
2015-Jul-24 18:22N 54°10' E 012°06'0 0.0
2015-Jul-24 17:28N 54°10' E 012°06'0 0.0
2015-Jul-24 16:22N 54°10' E 012°06'0 0.0
2015-Jul-24 15:28N 54°10' E 012°06'  
Track history (hours):
 
Tides and Currents Weather Stations Pressure Air Temp Water Temp Dewpoint Dewpoint Depression Visibility Wind Speed Wind Dir Waves Ship Positions

Norwegian Star

Operator: Norwegian Cruise Line

Last reported at 2015-Aug-03 15:14 UTC. Time now 2015-Aug-03 21:23 UTC.
Position N 57°18' E 019°34'.

Type: Ship. MMSI: 311082000.

Date/timePositionNaut miles runAvg speedWind from/ knotsBaromVisibWave heightAir tempDewpointWater temp
2015-Aug-03 15:14N 57°18' E 019°34'1316.4
2015-Aug-03 14:26N 57°09' E 019°17'1416.4
2015-Aug-03 13:33N 56°59' E 018°57'1716.7
2015-Aug-03 12:33N 56°49' E 018°33'1717.1
2015-Aug-03 11:33N 56°38' E 018°09'1717.1
2015-Aug-03 10:33N 56°27' E 017°45'1817.0
2015-Aug-03 09:29N 56°16' E 017°19'202411.6
2015-Aug-03 09:00N 59°12' E 014°12'205455.9 060 / 71017.0 17.1
2015-Aug-03 08:32N 56°06' E 016°56'3417.2
2015-Aug-03 06:33N 55°48' E 016°04'1717.7
2015-Aug-03 05:33N 55°39' E 015°37'1817.7
2015-Aug-03 04:33N 55°31' E 015°10'1817.7
2015-Aug-03 03:33N 55°24' E 014°41'1817.7
2015-Aug-03 02:33N 55°10' E 014°21'1717.4
2015-Aug-03 01:33N 54°59' E 013°58'1817.8
2015-Aug-03 00:33N 54°53' E 013°28'1817.6
2015-Aug-02 23:33N 54°48' E 012°59'1717.0
2015-Aug-02 22:34N 54°42' E 012°32'1615.8
2015-Aug-02 21:33N 54°30' E 012°14'1615.7
2015-Aug-02 20:33N 54°15' E 012°05'5 4.2
2015-Aug-02 19:26N 54°10' E 012°06'0 0.0
2015-Aug-02 18:29N 54°10' E 012°06'0 0.0
2015-Aug-02 17:25N 54°10' E 012°06'0 0.0
2015-Aug-02 16:32N 54°10' E 012°06'0 0.0
2015-Aug-02 15:32N 54°10' E 012°06'0 0.0
2015-Aug-02 14:33N 54°10' E 012°06'0 0.0
2015-Aug-02 13:33N 54°10' E 012°06'0 0.0
2015-Aug-02 12:33N 54°10' E 012°06'0 0.0
2015-Aug-02 11:32N 54°10' E 012°06'0 0.0
2015-Aug-02 10:32N 54°10' E 012°06'2 3.0
2015-Aug-02 10:00N 54°12' E 012°06'2 3.6 290 / 111015.0 21.0
2015-Aug-02 09:33N 54°10' E 012°06'2 2.8
2015-Aug-02 09:00N 54°12' E 012°06'2 3.4 310 / 101015.010.8 20.3
2015-Aug-02 08:31N 54°10' E 012°06'0 0.0
2015-Aug-02 07:31N 54°10' E 012°06'0 0.0
2015-Aug-02 06:31N 54°10' E 012°06'0 0.0
2015-Aug-02 05:31N 54°10' E 012°06'0 0.1
2015-Aug-02 04:34N 54°10' E 012°06'4 4.0
2015-Aug-02 03:33N 54°14' E 012°03'1515.1
2015-Aug-02 02:33N 54°23' E 011°43'1817.5
2015-Aug-02 01:33N 54°33' E 011°17'1716.5
2015-Aug-02 00:33N 54°41' E 010°53'1514.7
2015-Aug-01 23:33N 54°56' E 010°55'1515.1
2015-Aug-01 22:33N 55°10' E 011°03'1616.1
2015-Aug-01 21:33N 55°26' E 010°57'1919.2
2015-Aug-01 20:34N 55°44' E 010°48'4117.2
2015-Aug-01 18:12N 56°07' E 011°48'1320.6
2015-Aug-01 17:34N 56°12' E 012°10'1918.9
2015-Aug-01 16:33N 56°03' E 012°40'1616.0
2015-Aug-01 15:34N 55°47' E 012°43'5 5.3
2015-Aug-01 14:32N 55°43' E 012°37'0 0.0
2015-Aug-01 13:32N 55°43' E 012°37'0 0.0
2015-Aug-01 12:32N 55°43' E 012°37'0 0.0
2015-Aug-01 11:33N 55°43' E 012°37'0 0.0
2015-Aug-01 10:31N 55°43' E 012°37'1 2.1
2015-Aug-01 10:00N 55°42' E 012°36'1 2.4 320 / 21014.0 5.4 17.9
2015-Aug-01 09:32N 55°43' E 012°37'0 0.0
2015-Aug-01 08:33N 55°43' E 012°37'0 0.0
2015-Aug-01 07:32N 55°43' E 012°37'0 0.0
2015-Aug-01 06:32N 55°43' E 012°37'0 0.0
2015-Aug-01 05:31N 55°43' E 012°37'0 0.0
2015-Aug-01 04:33N 55°43' E 012°37'5 5.3
2015-Aug-01 03:33N 55°47' E 012°42'1615.7
2015-Aug-01 02:34N 56°03' E 012°39'1919.1
2015-Aug-01 01:34N 56°11' E 012°08'4018.5
2015-Jul-31 23:24N 55°57' E 011°01'3717.2
2015-Jul-31 21:15N 55°21' E 011°02'1318.0
2015-Jul-31 20:33N 55°08' E 011°03'1818.0
2015-Jul-31 19:33N 54°51' E 010°53'1616.5
2015-Jul-31 18:33N 54°37' E 011°09'2019.5
2015-Jul-31 17:33N 54°28' E 011°39'1818.5
2015-Jul-31 16:33N 54°27' E 012°10'5918.8
2015-Jul-31 13:24N 54°58' E 013°38'1720.3
2015-Jul-31 12:33N 55°04' E 014°05'2120.7
2015-Jul-31 11:33N 55°20' E 014°28'2120.6
2015-Jul-31 10:33N 55°32' E 014°58'2321.2
2015-Jul-31 09:27N 55°43' E 015°34'8120.5
2015-Jul-31 05:31N 56°42' E 017°13'2121.7
2015-Jul-31 04:33N 57°02' E 017°25'2221.9
2015-Jul-31 03:33N 57°23' E 017°36'12110.0
2015-Jul-30 15:24N 59°22' E 018°24'8 9.6
2015-Jul-30 14:33N 59°21' E 018°09'1 0.7
2015-Jul-30 13:31N 59°21' E 018°07'0 0.0
2015-Jul-30 12:31N 59°21' E 018°07'0 0.0
2015-Jul-30 11:31N 59°21' E 018°07'0 0.0
2015-Jul-30 10:33N 59°21' E 018°07'3 4.6
2015-Jul-30 10:00N 59°18' E 018°06'3 5.9 220 / 4992.0 5.4 16.3
2015-Jul-30 09:33N 59°21' E 018°07'3 4.7
2015-Jul-30 09:00N 59°18' E 018°06'3 5.9 270 / 7991.0 5.4 16.0
2015-Jul-30 08:33N 59°21' E 018°07'3 4.7
2015-Jul-30 08:00N 59°18' E 018°06'3 5.9 210 / 7991.0 5.4 16.0
2015-Jul-30 07:33N 59°21' E 018°07'0 0.0
2015-Jul-30 06:33N 59°21' E 018°07'0 0.3
2015-Jul-30 05:33N 59°21' E 018°08'8 8.0
2015-Jul-30 04:33N 59°22' E 018°23'8411.6
2015-Jul-29 21:20N 59°30' E 021°08'1416.9
2015-Jul-29 20:28N 59°27' E 021°36'714.3
2015-Jul-29 20:00N 59°30' E 021°48'1818.3 200 / 26993.0 2.2 0.516.4
2015-Jul-29 19:00N 59°30' E 022°24'1216.9 190 / 21994.0 5.4 0.516.6
2015-Jul-29 18:16N 59°34' E 022°47'415.3
2015-Jul-29 18:00N 59°36' E 022°54'818.6 200 / 17994.0 5.4 0.517.0
2015-Jul-29 17:33N 59°37' E 023°10'815.3
2015-Jul-29 17:00N 59°42' E 023°24'1021.6 220 / 11994.0 5.4 0.517.4
2015-Jul-29 16:33N 59°42' E 023°43'1817.0
2015-Jul-29 15:30N 59°47' E 024°17'31 3.7
2015-Jul-29 07:00N 60°12' E 024°54'15 3.3 160 / 5995.0 5.4 0.517.4
2015-Jul-29 02:26N 59°57' E 025°01'1213.5
2015-Jul-29 01:34N 59°55' E 025°24'1615.7
2015-Jul-29 00:33N 59°57' E 025°55'1817.7
2015-Jul-28 23:33N 60°01' E 026°29'1717.5
2015-Jul-28 22:33N 59°60' E 027°04'7915.8
2015-Jul-28 17:33N 59°59' E 029°42'1110.6
2015-Jul-28 16:33N 59°56' E 030°02'5 4.5
2015-Jul-28 15:31N 59°57' E 030°11'0 0.0
2015-Jul-28 14:28N 59°57' E 030°11'0 0.0
2015-Jul-28 13:31N 59°57' E 030°11'0 0.0
2015-Jul-28 12:31N 59°57' E 030°11'0 0.0
2015-Jul-28 11:31N 59°57' E 030°11'0 0.0
2015-Jul-28 10:31N 59°57' E 030°11'0 0.0
2015-Jul-28 09:31N 59°57' E 030°11'0 0.0
2015-Jul-28 08:31N 59°57' E 030°11'0 0.0
2015-Jul-28 07:28N 59°57' E 030°11'3 5.6
2015-Jul-28 07:00N 59°54' E 030°12'3 5.7 290 / 111000.0 5.4 0.517.8
2015-Jul-28 06:31N 59°57' E 030°11'0 0.0
2015-Jul-28 05:31N 59°57' E 030°11'0 0.0
2015-Jul-28 04:31N 59°57' E 030°11'0 0.0
2015-Jul-28 03:31N 59°57' E 030°11'0 0.0
2015-Jul-28 02:31N 59°57' E 030°11'0 0.0
2015-Jul-28 01:31N 59°57' E 030°11'0 0.0
2015-Jul-28 00:31N 59°57' E 030°11'0 0.0
2015-Jul-27 23:31N 59°57' E 030°11'0 0.0
2015-Jul-27 22:31N 59°57' E 030°11'0 0.0
2015-Jul-27 21:31N 59°57' E 030°11'0 0.0
2015-Jul-27 20:31N 59°57' E 030°11'3 5.1
2015-Jul-27 20:00N 59°54' E 030°12'3 5.7 020 / 81003.0 5.4 18.0
2015-Jul-27 19:31N 59°57' E 030°11'3 5.1
2015-Jul-27 19:00N 59°54' E 030°12'3 5.7 360 / 101003.0 5.4 0.518.7
2015-Jul-27 18:31N 59°57' E 030°11'3 5.1
2015-Jul-27 18:00N 59°54' E 030°12'3 5.7 350 / 81002.0 5.4 19.0
2015-Jul-27 17:31N 59°57' E 030°11'3 5.1
2015-Jul-27 17:00N 59°54' E 030°12'3 5.7 360 / 81003.0 5.4 19.2
2015-Jul-27 16:31N 59°57' E 030°11'3 5.1
2015-Jul-27 16:00N 59°54' E 030°12'3 5.7 320 / 91003.0 5.4 19.2
2015-Jul-27 15:31N 59°57' E 030°11'0 0.0
2015-Jul-27 14:31N 59°57' E 030°11'0 0.0
2015-Jul-27 13:31N 59°57' E 030°11'0 0.0
2015-Jul-27 12:31N 59°57' E 030°11'0 0.0
2015-Jul-27 11:31N 59°57' E 030°11'0 0.0
2015-Jul-27 10:31N 59°57' E 030°11'0 0.0
2015-Jul-27 09:31N 59°57' E 030°11'3 5.1
2015-Jul-27 09:00N 59°54' E 030°12'3 5.7 270 / 81002.0 5.4 18.6
2015-Jul-27 08:31N 59°57' E 030°11'3 5.1
2015-Jul-27 08:00N 59°54' E 030°12'3 5.2 240 / 121001.0 5.4 0.518.6
2015-Jul-27 07:28N 59°57' E 030°11'0 0.0
2015-Jul-27 06:28N 59°57' E 030°11'0 0.0
2015-Jul-27 05:31N 59°57' E 030°11'0 0.1
2015-Jul-27 04:33N 59°57' E 030°11'8 8.3
2015-Jul-27 03:33N 59°56' E 029°55'1110.6
2015-Jul-27 02:33N 60°01' E 029°35'7812.7
2015-Jul-26 20:27N 59°58' E 027°00'1314.4
2015-Jul-26 19:33N 59°59' E 026°34'2113.3
2015-Jul-26 18:00N 59°54' E 025°54'1616.2 180 / 22998.0 5.4 1.018.7
2015-Jul-26 17:00N 59°48' E 025°24'915.0 150 / 15997.0 5.4 1.018.7
2015-Jul-26 16:25N 59°46' E 025°08'1214.4
2015-Jul-26 15:33N 59°40' E 024°45'1312.9
2015-Jul-26 14:33N 59°27' E 024°46'0 0.5
2015-Jul-26 13:33N 59°27' E 024°46'0 0.0
2015-Jul-26 12:33N 59°27' E 024°46'0 0.0
2015-Jul-26 11:33N 59°27' E 024°46'0 0.0
2015-Jul-26 10:33N 59°27' E 024°46'0 0.0
2015-Jul-26 09:33N 59°27' E 024°46'0 0.0
2015-Jul-26 08:30N 59°27' E 024°46'3 6.2
2015-Jul-26 08:00N 59°24' E 024°48'3 7.2 160 / 121001.0 5.4 16.9
2015-Jul-26 07:33N 59°27' E 024°46'0 0.0
2015-Jul-26 06:30N 59°27' E 024°46'0 0.0
2015-Jul-26 05:33N 59°27' E 024°46'7 6.7
2015-Jul-26 04:33N 59°30' E 024°34'16615.8
2015-Jul-25 18:00N 57°54' E 020°12'19216.8 100 / 381004.0 2.2 1.517.0
2015-Jul-25 06:33N 55°44' E 015°53'1716.8
2015-Jul-25 05:33N 55°37' E 015°26'1717.1
2015-Jul-25 04:33N 55°29' E 014°59'1717.0
2015-Jul-25 03:33N 55°20' E 014°34'1817.7
2015-Jul-25 02:33N 55°06' E 014°15'1018.2
2015-Jul-25 02:00N 55°00' E 014°00'614.7 090 / 241007.0 5.4 1.017.012.015.0
2015-Jul-25 01:33N 54°57' E 013°50'1221.3
2015-Jul-25 01:00N 54°54' E 013°30'510.7 090 / 241007.010.8 1.017.012.015.0
2015-Jul-25 00:33N 54°53' E 013°22'1716.8
2015-Jul-24 23:33N 54°47' E 012°55'1616.4
2015-Jul-24 22:33N 54°41' E 012°29'1616.1
2015-Jul-24 21:33N 54°27' E 012°13'1414.5
2015-Jul-24 20:34N 54°14' E 012°04'4 3.3
2015-Jul-24 19:29N 54°10' E 012°06'0 0.0
2015-Jul-24 18:22N 54°10' E 012°06'0 0.0
2015-Jul-24 17:28N 54°10' E 012°06'0 0.0
2015-Jul-24 16:22N 54°10' E 012°06'0 0.0
2015-Jul-24 15:28N 54°10' E 012°06'  

Dump ship's entire track history